Time;durP1;ratioP1;P1;durP2;ratioP2;P2;SDS_P1;SDS_P2;PMS_P1;PMS_P2;Temp;Humidity;BMP_temperature;BMP_pressure;BME280_temperature;BME280_humidity;BME280_pressure;Samples;Min_cycle;Max_cycle;Signal;HPM_P1;HPM_P2
2023/12/07 00:00:28;;;;;;;8.85;5.22;;;0.40;99.90;;;;;;5056464;28;20032;-75
2023/12/07 00:02:54;;;;;;;9.10;5.43;;;0.40;99.90;;;;;;5056325;28;20424;-75
2023/12/07 00:05:19;;;;;;;8.68;4.70;;;0.40;99.90;;;;;;5056679;28;20469;-75
2023/12/07 00:07:45;;;;;;;8.13;4.65;;;0.40;99.90;;;;;;5056630;28;20033;-75
2023/12/07 00:10:11;;;;;;;8.52;4.57;;;0.40;99.90;;;;;;5071592;28;20083;-75
2023/12/07 00:12:36;;;;;;;6.40;3.90;;;0.40;99.90;;;;;;5071507;28;20036;-75
2023/12/07 00:15:02;;;;;;;8.57;4.32;;;0.40;99.90;;;;;;5056176;28;20036;-75
2023/12/07 00:17:28;;;;;;;7.82;4.55;;;0.40;99.90;;;;;;5056213;28;20061;-75
2023/12/07 00:19:55;;;;;;;7.00;4.30;;;0.40;99.90;;;;;;5071556;28;20074;-75
2023/12/07 00:22:21;;;;;;;7.85;4.40;;;0.40;99.90;;;;;;5056039;28;20033;-75
2023/12/07 00:24:46;;;;;;;6.65;4.25;;;0.40;99.90;;;;;;5056494;28;20449;-75
2023/12/07 00:27:12;;;;;;;7.95;4.32;;;0.40;99.90;;;;;;5056272;28;20032;-75
2023/12/07 00:29:38;;;;;;;6.88;4.15;;;0.40;99.90;;;;;;5055402;28;20416;-75
2023/12/07 00:32:05;;;;;;;11.35;5.82;;;0.40;99.90;;;;;;5055511;28;20060;-75
2023/12/07 00:34:30;;;;;;;9.60;5.68;;;0.40;99.90;;;;;;5055817;28;20479;-75
2023/12/07 00:36:56;;;;;;;9.77;5.47;;;0.40;99.90;;;;;;5056368;28;20025;-75
2023/12/07 00:39:22;;;;;;;10.73;6.05;;;0.40;99.90;;;;;;5071240;28;20032;-75
2023/12/07 00:41:47;;;;;;;10.73;6.20;;;0.40;99.90;;;;;;5055593;28;20029;-75
2023/12/07 00:44:14;;;;;;;11.23;6.20;;;0.40;99.90;;;;;;5055707;28;20055;-75
2023/12/07 00:46:40;;;;;;;9.75;5.63;;;0.40;99.90;;;;;;5055420;28;20174;-75
2023/12/07 00:49:06;;;;;;;8.63;5.25;;;0.40;99.90;;;;;;5055899;28;20504;-75
2023/12/07 00:51:31;;;;;;;11.25;6.45;;;0.40;99.90;;;;;;5070855;28;20114;-75
2023/12/07 00:53:58;;;;;;;17.67;8.80;;;0.40;99.90;;;;;;5071206;28;20116;-75
2023/12/07 00:56:24;;;;;;;16.50;9.50;;;0.40;99.90;;;;;;5055460;28;20029;-75
2023/12/07 00:58:50;;;;;;;15.52;8.38;;;0.40;99.90;;;;;;5053844;28;20025;-75
2023/12/07 01:01:16;;;;;;;13.32;8.02;;;0.40;99.90;;;;;;5055307;28;20035;-75
2023/12/07 01:03:41;;;;;;;13.23;7.47;;;0.40;99.90;;;;;;5055130;28;20499;-75
2023/12/07 01:06:07;;;;;;;11.60;7.28;;;0.40;99.90;;;;;;5055333;28;20102;-75
2023/12/07 01:08:33;;;;;;;10.95;6.32;;;0.40;99.90;;;;;;5070706;28;20370;-75
2023/12/07 01:10:59;;;;;;;9.93;5.53;;;0.40;99.90;;;;;;5054873;28;20040;-75
2023/12/07 01:13:24;;;;;;;11.00;5.97;;;0.40;99.90;;;;;;5055462;28;20059;-75
2023/12/07 01:15:50;;;;;;;10.20;5.75;;;0.40;99.90;;;;;;5055939;28;20033;-75
2023/12/07 01:18:16;;;;;;;8.35;5.50;;;0.40;99.90;;;;;;5053837;28;20061;-75
2023/12/07 01:20:42;;;;;;;10.80;5.68;;;0.40;99.90;;;;;;5055379;28;20381;-75
2023/12/07 01:23:10;;;;;;;8.35;5.13;;;0.40;99.90;;;;;;5054932;28;20036;-75
2023/12/07 01:25:36;;;;;;;8.65;5.00;;;0.40;99.90;;;;;;5054945;28;20060;-75
2023/12/07 01:28:02;;;;;;;7.03;4.40;;;0.40;99.90;;;;;;5055107;28;20065;-75
2023/12/07 01:30:27;;;;;;;7.55;4.63;;;0.40;99.90;;;;;;5054609;28;20025;-75
2023/12/07 01:32:53;;;;;;;7.47;4.30;;;0.40;99.90;;;;;;5054518;28;20032;-75
2023/12/07 01:35:19;;;;;;;7.53;4.38;;;0.40;99.90;;;;;;5053537;28;20021;-75
2023/12/07 01:37:45;;;;;;;8.23;4.28;;;0.40;99.90;;;;;;5053670;28;20029;-75
2023/12/07 01:40:11;;;;;;;7.78;4.70;;;0.40;99.90;;;;;;5053356;28;20461;-75
2023/12/07 01:42:37;;;;;;;7.35;4.40;;;0.40;99.90;;;;;;5053258;28;20032;-75
2023/12/07 01:45:07;;;;;;;7.72;4.70;;;0.40;99.90;;;;;;5070238;28;20112;-75
2023/12/07 01:47:37;;;;;;;8.57;4.85;;;0.40;99.90;;;;;;5069634;28;20079;-75
2023/12/07 01:50:06;;;;;;;8.45;5.40;;;0.40;99.90;;;;;;5053236;28;20408;-75
2023/12/07 01:52:34;;;;;;;9.85;5.50;;;0.40;99.90;;;;;;5054319;28;20492;-75
2023/12/07 01:55:00;;;;;;;8.77;5.00;;;0.40;99.90;;;;;;5054416;28;20100;-75
2023/12/07 01:57:25;;;;;;;7.28;4.30;;;0.40;99.90;;;;;;5069658;28;20051;-75
2023/12/07 01:59:51;;;;;;;8.60;5.07;;;0.30;99.90;;;;;;5054264;28;20029;-75
2023/12/07 02:02:17;;;;;;;7.80;4.68;;;0.30;99.90;;;;;;5069224;28;20029;-75
2023/12/07 02:04:43;;;;;;;9.35;5.13;;;0.30;99.90;;;;;;5054174;28;20029;-75
2023/12/07 02:07:09;;;;;;;8.32;4.95;;;0.30;99.90;;;;;;5054107;28;20029;-74
2023/12/07 02:09:35;;;;;;;7.65;4.40;;;0.30;99.90;;;;;;5054595;28;20017;-75
2023/12/07 02:12:00;;;;;;;7.57;4.10;;;0.30;99.90;;;;;;5053008;28;20033;-74
2023/12/07 02:14:26;;;;;;;9.18;5.28;;;0.30;99.90;;;;;;5053943;28;20021;-75
2023/12/07 02:17:01;;;;;;;8.63;5.20;;;0.30;99.90;;;;;;5053729;28;20017;-75
2023/12/07 02:19:47;;;;;;;7.00;4.38;;;0.30;99.90;;;;;;5053942;28;20242;-75
2023/12/07 02:22:21;;;;;;;7.55;4.40;;;0.30;99.90;;;;;;5054065;28;20036;-75
2023/12/07 02:25:09;;;;;;;8.35;4.72;;;0.30;99.90;;;;;;5054383;28;20025;-75
2023/12/07 02:27:43;;;;;;;9.57;5.05;;;0.30;99.90;;;;;;5053920;28;20112;-75
2023/12/07 02:30:10;;;;;;;7.85;4.63;;;0.30;99.90;;;;;;5053508;28;20025;-75
2023/12/07 02:32:37;;;;;;;7.95;4.63;;;0.30;99.90;;;;;;5052260;28;20426;-75
2023/12/07 02:35:04;;;;;;;8.30;4.80;;;0.30;99.90;;;;;;5053560;28;20110;-75
2023/12/07 02:37:40;;;;;;;8.80;5.40;;;0.30;99.90;;;;;;5053846;28;20029;-75
2023/12/07 02:40:11;;;;;;;7.60;4.78;;;0.30;99.90;;;;;;5069052;28;20028;-75
2023/12/07 02:42:41;;;;;;;9.52;5.43;;;0.30;99.90;;;;;;5053497;28;20020;-75
2023/12/07 02:45:07;;;;;;;10.90;6.00;;;0.30;99.90;;;;;;5053653;28;20032;-75
2023/12/07 02:47:33;;;;;;;11.40;6.15;;;0.30;99.90;;;;;;5053196;28;20365;-74
2023/12/07 02:49:59;;;;;;;9.85;6.35;;;0.30;99.90;;;;;;5053640;28;20033;-75
2023/12/07 02:52:25;;;;;;;10.45;5.75;;;0.30;99.90;;;;;;5053329;28;20032;-75
2023/12/07 02:54:51;;;;;;;10.40;6.10;;;0.30;99.90;;;;;;5053321;28;20025;-75
2023/12/07 02:57:16;;;;;;;8.70;5.25;;;0.30;99.90;;;;;;5053840;28;20075;-75
2023/12/07 02:59:42;;;;;;;10.45;5.68;;;0.30;99.90;;;;;;5068713;28;20033;-75
2023/12/07 03:02:08;;;;;;;11.00;5.90;;;0.30;99.90;;;;;;5052970;28;20087;-75
2023/12/07 03:04:34;;;;;;;8.45;5.80;;;0.30;99.90;;;;;;5053415;28;20489;-75
2023/12/07 03:06:59;;;;;;;11.15;5.78;;;0.30;99.90;;;;;;5052050;28;20127;-75
2023/12/07 03:09:25;;;;;;;9.18;5.38;;;0.30;99.90;;;;;;5053099;28;20036;-75
2023/12/07 03:11:51;;;;;;;8.45;4.95;;;0.30;99.90;;;;;;5053341;28;20044;-73
2023/12/07 03:14:16;;;;;;;9.68;4.63;;;0.30;99.90;;;;;;5051979;28;20036;-72
2023/12/07 03:16:42;;;;;;;8.05;4.53;;;0.30;99.90;;;;;;5053079;28;20056;-72
2023/12/07 03:19:08;;;;;;;9.52;5.55;;;0.30;99.90;;;;;;5052924;28;20070;-72
2023/12/07 03:21:33;;;;;;;9.60;5.03;;;0.30;99.90;;;;;;5052437;28;20504;-72
2023/12/07 03:23:59;;;;;;;9.10;5.18;;;0.30;99.90;;;;;;5057211;28;20068;-72
2023/12/07 03:26:25;;;;;;;8.52;5.07;;;0.30;99.90;;;;;;5057122;28;20025;-72
2023/12/07 03:28:51;;;;;;;9.15;4.82;;;0.30;99.90;;;;;;5072527;28;20558;-72
2023/12/07 03:31:16;;;;;;;7.57;4.70;;;0.30;99.90;;;;;;5072269;28;20025;-72
2023/12/07 03:33:42;;;;;;;9.07;4.95;;;0.30;99.90;;;;;;5056703;28;20029;-72
2023/12/07 03:36:11;;;;;;;7.97;4.82;;;0.30;99.90;;;;;;5057209;28;20447;-72
2023/12/07 03:38:37;;;;;;;7.60;4.38;;;0.30;99.90;;;;;;5056900;28;20028;-72
2023/12/07 03:41:04;;;;;;;8.15;4.57;;;0.30;99.90;;;;;;5057144;28;20115;-72
2023/12/07 03:43:32;;;;;;;7.63;4.15;;;0.30;99.90;;;;;;5057056;28;20025;-72
2023/12/07 03:45:58;;;;;;;7.00;4.47;;;0.30;99.90;;;;;;5057319;28;20029;-72
2023/12/07 03:48:24;;;;;;;7.15;4.03;;;0.30;99.90;;;;;;5056481;28;20032;-72
2023/12/07 03:50:49;;;;;;;7.22;4.20;;;0.30;99.90;;;;;;5056800;28;20032;-72
2023/12/07 03:53:15;;;;;;;6.35;3.60;;;0.30;99.90;;;;;;5056920;28;20029;-72
2023/12/07 03:55:41;;;;;;;6.85;3.97;;;0.30;99.90;;;;;;5056821;28;20037;-73
2023/12/07 03:58:07;;;;;;;7.07;4.10;;;0.30;99.90;;;;;;5055932;28;20021;-72
2023/12/07 04:00:32;;;;;;;7.00;4.03;;;0.30;99.90;;;;;;5056457;28;20036;-72
2023/12/07 04:02:58;;;;;;;8.15;4.43;;;0.30;99.90;;;;;;5056167;28;20037;-72
2023/12/07 04:05:24;;;;;;;7.97;4.28;;;0.30;99.90;;;;;;5071801;28;20025;-72
2023/12/07 04:07:50;;;;;;;6.85;4.28;;;0.30;99.90;;;;;;5056357;28;20469;-72
2023/12/07 04:10:15;;;;;;;8.55;5.07;;;0.30;99.90;;;;;;5056347;28;20033;-73
2023/12/07 04:12:41;;;;;;;9.68;5.60;;;0.20;99.90;;;;;;5056199;28;20025;-72
2023/12/07 04:15:07;;;;;;;9.80;6.00;;;0.30;99.90;;;;;;5056216;28;20060;-72
2023/12/07 04:17:33;;;;;;;10.80;6.07;;;0.30;99.90;;;;;;5055892;28;20086;-72
2023/12/07 04:19:59;;;;;;;10.80;6.03;;;0.30;99.90;;;;;;5056163;28;20021;-72
2023/12/07 04:22:24;;;;;;;9.50;6.13;;;0.30;99.90;;;;;;5056021;28;20551;-73
2023/12/07 04:24:50;;;;;;;10.68;6.18;;;0.30;99.90;;;;;;5056661;28;20029;-72
2023/12/07 04:27:16;;;;;;;11.23;6.40;;;0.30;99.90;;;;;;5071397;28;20025;-72
2023/12/07 04:29:41;;;;;;;11.75;6.63;;;0.30;99.90;;;;;;5056005;28;20025;-72
2023/12/07 04:32:08;;;;;;;11.70;7.20;;;0.30;99.90;;;;;;5055798;28;20036;-72
2023/12/07 04:34:34;;;;;;;11.77;7.03;;;0.30;99.90;;;;;;5054770;28;20021;-72
2023/12/07 04:37:00;;;;;;;12.93;6.78;;;0.30;99.90;;;;;;5055849;28;20385;-72
2023/12/07 04:39:25;;;;;;;14.38;6.38;;;0.30;99.90;;;;;;5055861;28;20028;-72
2023/12/07 04:41:51;;;;;;;13.27;6.65;;;0.30;99.90;;;;;;5055633;28;20508;-72
2023/12/07 04:44:17;;;;;;;10.88;6.47;;;0.30;99.90;;;;;;5055994;28;20025;-72
2023/12/07 04:46:43;;;;;;;13.32;6.75;;;0.30;99.90;;;;;;5055954;28;20094;-72
2023/12/07 04:49:08;;;;;;;10.18;6.32;;;0.30;99.90;;;;;;5055425;28;20017;-72
2023/12/07 04:51:34;;;;;;;14.00;7.13;;;0.20;99.90;;;;;;5055530;28;20448;-72
2023/12/07 04:54:00;;;;;;;10.40;5.93;;;0.30;99.90;;;;;;5070944;28;20496;-72
2023/12/07 04:56:25;;;;;;;9.32;5.10;;;0.20;99.90;;;;;;5055516;28;20025;-72
2023/12/07 04:58:51;;;;;;;10.57;5.90;;;0.20;99.90;;;;;;5054316;28;20025;-72
2023/12/07 05:01:18;;;;;;;9.95;5.38;;;0.20;99.90;;;;;;5055353;28;20033;-72
2023/12/07 05:03:45;;;;;;;9.20;5.43;;;0.20;99.90;;;;;;5070602;28;20481;-72
2023/12/07 05:06:10;;;;;;;9.45;5.10;;;0.20;99.90;;;;;;5055358;28;20033;-72
2023/12/07 05:08:36;;;;;;;11.77;5.57;;;0.20;99.90;;;;;;5055274;28;20029;-72
2023/12/07 05:11:02;;;;;;;9.48;5.40;;;0.20;99.90;;;;;;5054898;28;20076;-72
2023/12/07 05:13:27;;;;;;;10.50;6.15;;;0.20;99.90;;;;;;5055180;28;20079;-72
2023/12/07 05:15:53;;;;;;;22.67;12.93;;;0.20;99.90;;;;;;5055183;28;20029;-72
2023/12/07 05:18:19;;;;;;;24.77;14.48;;;0.20;99.90;;;;;;5054855;28;20048;-72
2023/12/07 05:20:44;;;;;;;19.38;10.88;;;0.10;99.90;;;;;;5055405;28;20584;-72
2023/12/07 05:23:10;;;;;;;14.25;7.88;;;0.20;99.90;;;;;;5055018;28;20139;-72
2023/12/07 05:25:36;;;;;;;19.42;8.80;;;0.20;99.90;;;;;;5054949;28;20104;-72
2023/12/07 05:28:01;;;;;;;16.10;8.82;;;0.20;99.90;;;;;;5053727;28;20055;-72
2023/12/07 05:30:27;;;;;;;16.05;8.70;;;0.10;99.90;;;;;;5054054;28;20025;-73
2023/12/07 05:32:53;;;;;;;15.93;7.75;;;0.20;99.90;;;;;;5054591;28;20036;-73
2023/12/07 05:35:20;;;;;;;13.63;7.78;;;0.20;99.90;;;;;;5054695;28;20103;-73
2023/12/07 05:37:46;;;;;;;15.57;9.10;;;0.20;99.90;;;;;;5054716;28;20033;-72
2023/12/07 05:40:12;;;;;;;16.40;8.55;;;0.20;99.90;;;;;;5054594;28;20031;-73
2023/12/07 05:42:38;;;;;;;17.45;10.38;;;0.20;99.90;;;;;;5054518;28;20094;-72
2023/12/07 05:45:06;;;;;;;15.20;9.70;;;0.20;99.90;;;;;;5054871;28;20473;-72
2023/12/07 05:47:32;;;;;;;16.50;8.65;;;0.20;99.90;;;;;;5054501;28;20029;-72
2023/12/07 05:49:59;;;;;;;15.43;8.95;;;0.20;99.90;;;;;;5054499;28;20539;-72
2023/12/07 05:52:25;;;;;;;15.25;8.93;;;0.20;99.90;;;;;;5069755;28;20044;-72
2023/12/07 05:54:51;;;;;;;13.23;8.43;;;0.10;99.90;;;;;;5054369;28;20393;-72
2023/12/07 05:57:17;;;;;;;13.82;8.90;;;0.10;99.90;;;;;;5054603;28;20029;-72
2023/12/07 05:59:43;;;;;;;14.15;8.52;;;0.10;99.90;;;;;;5054835;28;20673;-72
2023/12/07 06:02:09;;;;;;;19.95;10.88;;;0.10;99.90;;;;;;5054187;28;20104;-72
2023/12/07 06:04:34;;;;;;;17.30;10.20;;;0.00;99.90;;;;;;5054023;28;20029;-72
2023/12/07 06:07:00;;;;;;;17.58;9.88;;;0.00;99.90;;;;;;5054207;28;20524;-72
2023/12/07 06:09:26;;;;;;;16.10;9.00;;;0.00;99.90;;;;;;5054041;28;20058;-72
2023/12/07 06:11:52;;;;;;;15.35;8.82;;;0.00;99.90;;;;;;5053849;28;20033;-72
2023/12/07 06:14:17;;;;;;;14.52;8.30;;;-0.10;99.90;;;;;;5054023;28;20021;-72
2023/12/07 06:16:43;;;;;;;13.23;7.93;;;-0.10;99.90;;;;;;5069604;28;20087;-72
2023/12/07 06:19:08;;;;;;;13.27;7.43;;;-0.10;99.90;;;;;;5053839;28;20029;-72
2023/12/07 06:21:34;;;;;;;11.70;7.00;;;0.00;99.90;;;;;;5054080;28;20035;-72
2023/12/07 06:24:00;;;;;;;11.93;7.30;;;0.00;99.90;;;;;;5054174;28;20029;-72
2023/12/07 06:26:26;;;;;;;13.60;7.72;;;0.00;99.90;;;;;;5054081;28;20028;-72
2023/12/07 06:28:51;;;;;;;11.50;7.57;;;0.00;99.90;;;;;;5053789;28;20042;-72
2023/12/07 06:31:21;;;;;;;13.75;8.30;;;0.00;99.90;;;;;;5053611;28;20029;-72
2023/12/07 06:33:47;;;;;;;13.10;7.32;;;0.00;99.90;;;;;;5036131;28;20033;-72
2023/12/07 06:36:20;;;;;;;12.90;7.47;;;0.00;99.90;;;;;;5053559;28;20154;-72
2023/12/07 06:38:46;;;;;;;12.30;7.63;;;0.00;99.90;;;;;;5053652;28;20025;-72
2023/12/07 06:41:11;;;;;;;14.80;7.97;;;0.00;99.90;;;;;;5053662;28;20389;-72
2023/12/07 06:43:37;;;;;;;12.80;7.18;;;0.00;99.90;;;;;;5053536;28;20029;-72
2023/12/07 06:46:03;;;;;;;14.55;7.20;;;-0.10;99.90;;;;;;5053553;28;20498;-72
2023/12/07 06:48:29;;;;;;;15.25;8.15;;;-0.10;99.90;;;;;;5053246;28;20484;-72
2023/12/07 06:50:54;;;;;;;19.08;8.13;;;-0.10;99.90;;;;;;5053602;28;20473;-72
2023/12/07 06:53:20;;;;;;;14.38;8.55;;;-0.10;99.90;;;;;;5053718;28;20037;-72
2023/12/07 06:55:46;;;;;;;14.63;8.38;;;-0.10;99.90;;;;;;5053380;28;20025;-72
2023/12/07 06:58:11;;;;;;;13.93;8.50;;;-0.20;99.90;;;;;;5052942;28;20079;-73
2023/12/07 07:00:37;;;;;;;16.73;8.95;;;-0.20;99.90;;;;;;5053236;28;20029;-72
2023/12/07 07:03:03;;;;;;;17.20;9.15;;;-0.30;99.90;;;;;;5053077;28;20485;-72
2023/12/07 07:05:29;;;;;;;17.38;9.75;;;-0.30;99.90;;;;;;5053268;28;20037;-72
2023/12/07 07:07:55;;;;;;;13.85;8.20;;;-0.40;99.90;;;;;;5053363;28;20064;-72
2023/12/07 07:10:21;;;;;;;14.65;8.23;;;-0.40;99.90;;;;;;5052951;28;20036;-72
2023/12/07 07:12:47;;;;;;;13.98;8.65;;;-0.50;99.90;;;;;;5053159;28;20025;-72
2023/12/07 07:15:12;;;;;;;13.80;8.43;;;-0.60;99.90;;;;;;5053194;28;20055;-72
2023/12/07 07:17:38;;;;;;;13.55;9.20;;;-0.60;99.90;;;;;;5053173;28;20473;-72
2023/12/07 07:20:04;;;;;;;13.90;8.88;;;-0.60;99.90;;;;;;5052844;28;20052;-72
2023/12/07 07:22:30;;;;;;;14.25;8.85;;;-0.60;99.90;;;;;;5053074;28;20037;-72
2023/12/07 07:24:56;;;;;;;31.27;17.60;;;-0.60;99.90;;;;;;5068568;28;20036;-72
2023/12/07 07:27:22;;;;;;;51.95;27.25;;;-0.60;99.90;;;;;;5053054;28;20437;-72
2023/12/07 07:29:47;;;;;;;39.22;20.17;;;-0.60;99.90;;;;;;5053036;28;20028;-72
2023/12/07 07:32:13;;;;;;;27.85;15.13;;;-0.60;99.90;;;;;;5052893;28;20036;-72
2023/12/07 07:34:39;;;;;;;15.25;9.02;;;-0.60;99.90;;;;;;5052844;28;20366;-72
2023/12/07 07:37:06;;;;;;;17.45;9.70;;;-0.60;99.90;;;;;;5051685;28;20100;-72
2023/12/07 07:39:32;;;;;;;40.70;24.08;;;-0.60;99.90;;;;;;5052940;28;20036;-72
2023/12/07 07:41:58;;;;;;;30.50;20.40;;;-0.60;99.90;;;;;;5052726;28;20393;-72
2023/12/07 07:44:24;;;;;;;30.05;13.95;;;-0.60;99.90;;;;;;5052015;28;20029;-72
2023/12/07 07:46:49;;;;;;;20.95;11.98;;;-0.60;99.90;;;;;;5051766;28;20025;-72
2023/12/07 07:49:15;;;;;;;25.30;11.40;;;-0.60;99.90;;;;;;5052648;28;20064;-72
2023/12/07 07:51:41;;;;;;;19.73;10.15;;;-0.60;99.90;;;;;;5052688;28;20033;-72
2023/12/07 07:54:06;;;;;;;19.30;10.90;;;-0.60;99.90;;;;;;5051641;28;20060;-72
2023/12/07 07:56:32;;;;;;;15.75;9.30;;;-0.60;99.90;;;;;;5068462;28;20064;-72
2023/12/07 07:59:00;;;;;;;21.38;9.93;;;-0.60;99.90;;;;;;5068205;28;20075;-72
2023/12/07 08:01:26;;;;;;;34.65;14.70;;;-0.60;99.90;;;;;;5068033;28;20029;-72
2023/12/07 08:03:52;;;;;;;22.05;10.43;;;-0.60;99.90;;;;;;5052534;28;20112;-72
2023/12/07 08:06:18;;;;;;;21.05;10.73;;;-0.60;99.90;;;;;;5052712;28;20393;-72
2023/12/07 08:08:44;;;;;;;26.17;10.52;;;-0.60;99.90;;;;;;5053458;28;20116;-72
2023/12/07 08:11:10;;;;;;;25.27;11.43;;;-0.70;99.90;;;;;;5071479;28;20119;-72
2023/12/07 08:13:35;;;;;;;24.38;13.15;;;-0.60;99.90;;;;;;5056590;28;20082;-72
2023/12/07 08:16:01;;;;;;;30.52;15.05;;;-0.60;99.90;;;;;;5056579;28;20396;-72
2023/12/07 08:18:27;;;;;;;27.67;14.43;;;-0.60;99.90;;;;;;5056168;28;20495;-72
2023/12/07 08:20:53;;;;;;;27.05;14.32;;;-0.60;99.90;;;;;;5056154;28;20108;-72
2023/12/07 08:23:18;;;;;;;25.38;13.25;;;-0.50;99.90;;;;;;5071516;28;20508;-72
2023/12/07 08:25:44;;;;;;;42.95;20.52;;;-0.40;99.90;;;;;;5056453;28;20033;-72
2023/12/07 08:28:10;;;;;;;41.95;18.75;;;-0.30;99.90;;;;;;5056138;28;20056;-72
2023/12/07 08:30:36;;;;;;;32.55;15.60;;;-0.30;99.90;;;;;;5055905;28;20021;-72
2023/12/07 08:33:02;;;;;;;30.27;13.88;;;-0.20;99.90;;;;;;5055985;28;20036;-72
2023/12/07 08:35:28;;;;;;;27.25;13.18;;;-0.30;99.90;;;;;;5055692;28;20029;-72
2023/12/07 08:37:53;;;;;;;28.55;14.18;;;-0.30;99.90;;;;;;5055922;28;20025;-72
2023/12/07 08:40:19;;;;;;;30.33;13.48;;;-0.20;99.90;;;;;;5055711;28;20025;-72
2023/12/07 08:42:47;;;;;;;28.33;12.98;;;-0.20;99.90;;;;;;5055712;28;20021;-72
2023/12/07 08:45:13;;;;;;;25.95;13.73;;;-0.20;99.90;;;;;;5055879;28;20017;-72
2023/12/07 08:47:39;;;;;;;31.65;14.20;;;-0.10;99.90;;;;;;5071160;28;20029;-72
2023/12/07 08:50:07;;;;;;;33.20;16.55;;;-0.10;99.90;;;;;;5055636;28;20029;-72
2023/12/07 08:52:33;;;;;;;30.10;14.68;;;0.00;99.90;;;;;;5055493;28;20055;-72
2023/12/07 08:54:59;;;;;;;21.55;12.02;;;0.10;99.90;;;;;;5055531;28;20028;-72
2023/12/07 08:57:25;;;;;;;19.85;10.70;;;0.10;99.90;;;;;;5056061;28;20025;-72
2023/12/07 08:59:51;;;;;;;25.63;12.63;;;0.10;99.90;;;;;;5055479;28;20515;-72
2023/12/07 09:02:16;;;;;;;23.13;11.93;;;0.10;99.90;;;;;;5054240;28;20057;-72
2023/12/07 09:04:42;;;;;;;39.28;15.00;;;0.10;99.90;;;;;;5055156;28;20029;-72
2023/12/07 09:07:09;;;;;;;31.95;13.68;;;0.00;99.90;;;;;;5055331;28;20047;-72
2023/12/07 09:09:35;;;;;;;27.70;12.63;;;0.00;99.90;;;;;;5055258;28;20025;-72
2023/12/07 09:12:01;;;;;;;23.83;11.95;;;-0.10;99.90;;;;;;5088089;23;20045;-73
2023/12/07 09:14:26;;;;;;;23.58;12.77;;;-0.20;99.90;;;;;;5075283;28;20103;-73
2023/12/07 09:16:52;;;;;;;22.30;11.00;;;-0.30;99.90;;;;;;5075719;28;20032;-73
2023/12/07 09:19:18;;;;;;;32.67;14.23;;;-0.30;99.90;;;;;;5074730;28;20033;-73
2023/12/07 09:21:44;;;;;;;31.35;14.02;;;-0.30;99.90;;;;;;5075239;28;20024;-73
2023/12/07 09:24:09;;;;;;;28.55;12.52;;;-0.30;99.90;;;;;;5075076;28;20059;-73
2023/12/07 09:26:36;;;;;;;26.23;11.57;;;-0.30;99.90;;;;;;5074961;28;20032;-73
2023/12/07 09:29:02;;;;;;;19.67;11.20;;;-0.30;99.90;;;;;;5075463;28;20024;-73
2023/12/07 09:31:28;;;;;;;17.95;10.27;;;-0.30;99.90;;;;;;5074681;28;20041;-73
2023/12/07 09:33:54;;;;;;;18.13;10.38;;;-0.30;99.90;;;;;;5074627;28;20032;-73
2023/12/07 09:36:21;;;;;;;17.15;9.30;;;-0.30;99.90;;;;;;5074852;28;20028;-73
2023/12/07 09:38:47;;;;;;;16.63;9.27;;;-0.30;99.90;;;;;;5074764;28;20028;-73
2023/12/07 09:41:13;;;;;;;16.58;8.88;;;-0.30;99.90;;;;;;5074601;28;20056;-73
2023/12/07 09:43:39;;;;;;;17.92;9.38;;;-0.30;99.90;;;;;;5074669;28;20033;-73
2023/12/07 09:46:06;;;;;;;17.40;8.90;;;-0.20;99.90;;;;;;5073299;28;20036;-73
2023/12/07 09:48:32;;;;;;;19.42;10.40;;;-0.20;99.90;;;;;;5074281;28;20511;-73
2023/12/07 09:51:00;;;;;;;17.33;9.27;;;-0.30;99.90;;;;;;5074651;28;20028;-73
2023/12/07 09:53:33;;;;;;;22.08;10.07;;;-0.30;99.90;;;;;;5074665;28;20020;-73
2023/12/07 09:55:59;;;;;;;21.73;10.48;;;-0.30;99.90;;;;;;5074456;28;20021;-73
2023/12/07 09:58:25;;;;;;;22.27;10.77;;;-0.30;99.90;;;;;;5039855;28;20128;-73
2023/12/07 10:00:50;;;;;;;16.65;9.32;;;-0.40;99.90;;;;;;5074257;28;20035;-73
2023/12/07 10:03:23;;;;;;;21.00;10.85;;;-0.40;99.90;;;;;;5073094;28;20119;-73
2023/12/07 10:06:01;;;;;;;24.27;11.38;;;-0.50;99.90;;;;;;5074502;28;20082;-73
2023/12/07 10:08:37;;;;;;;25.08;10.82;;;-0.50;99.90;;;;;;5074215;28;20094;-73
2023/12/07 10:11:11;;;;;;;18.50;9.75;;;-0.50;99.90;;;;;;5072565;28;20107;-73
2023/12/07 10:13:38;;;;;;;22.65;11.13;;;-0.50;99.90;;;;;;5073235;28;20025;-73
2023/12/07 10:16:08;;;;;;;19.50;9.75;;;-0.40;99.90;;;;;;5056202;28;20035;-73
2023/12/07 10:18:33;;;;;;;19.33;10.30;;;-0.30;99.90;;;;;;5073702;28;20020;-73
2023/12/07 10:20:59;;;;;;;18.25;9.68;;;-0.20;99.90;;;;;;5073597;28;20036;-73
2023/12/07 10:23:27;;;;;;;23.75;10.93;;;-0.10;99.90;;;;;;5055972;28;20078;-73
2023/12/07 10:25:53;;;;;;;21.85;10.02;;;-0.10;99.90;;;;;;5074113;28;20032;-73
2023/12/07 10:28:19;;;;;;;21.98;10.10;;;0.00;99.90;;;;;;5072540;28;20036;-73
2023/12/07 10:30:45;;;;;;;18.17;9.10;;;0.00;99.90;;;;;;5073551;28;20058;-71
2023/12/07 10:33:13;;;;;;;19.60;10.02;;;0.10;99.90;;;;;;5073128;28;20480;-73
2023/12/07 10:35:42;;;;;;;23.80;11.07;;;0.10;99.90;;;;;;5073495;28;20063;-73
2023/12/07 10:38:08;;;;;;;21.00;10.15;;;0.20;99.90;;;;;;5072307;28;20031;-73
2023/12/07 10:40:34;;;;;;;18.92;9.15;;;0.20;99.90;;;;;;5073547;28;20503;-71
2023/12/07 10:43:04;;;;;;;20.83;9.68;;;0.20;99.90;;;;;;5073467;28;20033;-73
2023/12/07 10:45:31;;;;;;;17.95;9.45;;;0.30;99.90;;;;;;5073728;28;20111;-73
2023/12/07 10:48:07;;;;;;;16.95;9.05;;;0.30;99.90;;;;;;5074080;28;20085;-73
2023/12/07 10:50:43;;;;;;;22.35;9.15;;;0.30;99.90;;;;;;5071965;28;20383;-73
2023/12/07 10:53:11;;;;;;;19.75;9.88;;;0.40;99.90;;;;;;5073810;28;20468;-73
2023/12/07 10:55:45;;;;;;;14.85;8.57;;;0.40;99.90;;;;;;5073491;28;20024;-73
2023/12/07 10:58:13;;;;;;;17.77;8.98;;;0.40;99.90;;;;;;5073440;28;20016;-73
2023/12/07 11:00:46;;;;;;;14.38;8.52;;;0.50;99.90;;;;;;5073577;28;20036;-73
2023/12/07 11:03:17;;;;;;;16.42;9.07;;;0.50;99.90;;;;;;5073692;28;20035;-73
2023/12/07 11:05:44;;;;;;;15.30;8.60;;;0.50;99.90;;;;;;5071914;28;20033;-73
2023/12/07 11:08:17;;;;;;;14.15;8.90;;;0.60;99.90;;;;;;5073319;28;20030;-73
2023/12/07 11:10:50;;;;;;;17.40;8.95;;;0.60;99.90;;;;;;5073053;28;20064;-73
2023/12/07 11:13:31;;;;;;;17.83;9.38;;;0.70;99.90;;;;;;5073348;28;20043;-73
2023/12/07 11:16:00;;;;;;;15.85;8.68;;;0.70;99.90;;;;;;5073647;28;20468;-73
2023/12/07 11:18:26;;;;;;;20.83;9.95;;;0.80;99.90;;;;;;5073223;28;20498;-73
2023/12/07 11:20:53;;;;;;;20.20;9.30;;;0.80;99.90;;;;;;5071997;28;20066;-73
2023/12/07 11:23:19;;;;;;;21.50;10.15;;;0.70;99.90;;;;;;5073445;28;20047;-73
2023/12/07 11:25:50;;;;;;;15.65;9.40;;;0.70;99.90;;;;;;5073146;28;20020;-72
2023/12/07 11:28:16;;;;;;;21.33;10.27;;;0.70;99.90;;;;;;5073493;28;20029;-71
2023/12/07 11:30:45;;;;;;;16.70;9.00;;;0.70;99.90;;;;;;5072086;28;20098;-73
2023/12/07 11:33:12;;;;;;;13.10;7.15;;;0.70;99.90;;;;;;5073081;28;20028;-73
2023/12/07 11:36:13;;;;;;;18.65;8.00;;;0.70;99.90;;;;;;5072931;28;20036;-73
2023/12/07 11:39:06;;;;;;;17.83;9.07;;;0.70;99.90;;;;;;5031156;28;20068;-73
2023/12/07 11:41:42;;;;;;;11.85;7.53;;;0.70;99.90;;;;;;5072022;28;20369;-73
2023/12/07 11:44:10;;;;;;;14.52;8.43;;;0.70;99.90;;;;;;5074624;28;20056;-73
2023/12/07 11:46:37;;;;;;;14.75;8.15;;;0.80;99.90;;;;;;5075554;28;20040;-73
2023/12/07 11:49:03;;;;;;;15.93;8.98;;;0.80;99.90;;;;;;5076632;28;20040;-73
2023/12/07 11:51:29;;;;;;;16.13;8.68;;;0.90;99.90;;;;;;5075326;28;20028;-73
2023/12/07 11:53:55;;;;;;;16.75;8.65;;;0.90;99.90;;;;;;5076765;28;20029;-73
2023/12/07 11:56:21;;;;;;;14.85;8.10;;;0.90;99.90;;;;;;5076606;28;20020;-73
2023/12/07 11:58:47;;;;;;;20.23;13.10;;;1.00;99.90;;;;;;5075714;28;20024;-73
2023/12/07 12:01:13;;;;;;;17.92;9.15;;;1.00;99.90;;;;;;5076687;28;20483;-73
2023/12/07 12:03:39;;;;;;;19.13;9.00;;;1.00;99.90;;;;;;5075966;28;20036;-73
2023/12/07 12:06:08;;;;;;;18.40;9.05;;;1.00;99.90;;;;;;5076304;28;20123;-73
2023/12/07 12:08:34;;;;;;;16.85;9.85;;;1.00;99.90;;;;;;5076442;28;20025;-73
2023/12/07 12:11:00;;;;;;;18.40;9.32;;;1.00;99.90;;;;;;5076345;28;20032;-73
2023/12/07 12:13:28;;;;;;;17.10;9.18;;;1.10;99.90;;;;;;5076708;28;20027;-73
2023/12/07 12:15:53;;;;;;;19.73;10.07;;;1.10;99.90;;;;;;5076331;28;20016;-73
2023/12/07 12:18:20;;;;;;;17.58;9.98;;;1.10;99.90;;;;;;5075380;28;20472;-73
2023/12/07 12:20:46;;;;;;;18.55;10.82;;;1.10;99.90;;;;;;5076012;28;20115;-73
2023/12/07 12:23:11;;;;;;;17.60;9.82;;;1.20;99.90;;;;;;5076235;28;20056;-73
2023/12/07 12:25:39;;;;;;;17.85;9.80;;;1.30;99.90;;;;;;5074979;28;20478;-73
2023/12/07 12:28:06;;;;;;;16.00;9.70;;;1.40;99.90;;;;;;5074980;28;20107;-73
2023/12/07 12:30:33;;;;;;;15.77;8.98;;;1.50;99.90;;;;;;5075994;28;20028;-73
2023/12/07 12:33:02;;;;;;;25.10;10.07;;;1.60;99.90;;;;;;5075553;28;20081;-73
2023/12/07 12:35:28;;;;;;;13.23;8.20;;;1.60;99.90;;;;;;5075808;28;20077;-74
2023/12/07 12:37:58;;;;;;;15.80;9.48;;;1.70;99.90;;;;;;5075930;28;20021;-74
2023/12/07 12:40:27;;;;;;;14.88;8.50;;;1.70;99.90;;;;;;5075757;28;20016;-74
2023/12/07 12:42:53;;;;;;;15.27;8.38;;;1.70;99.90;;;;;;5075729;28;20070;-73